x

Venice, Fl (venf1) Weather Station

5:00pm - Fri 2nd Dec 2016 All times are EST. -5 hours from GMT.

  • Wind
    9mph, 13mph gusts
  • Sea Temp 71°f
  • Air Temp 76°f
  • Sea Pressure 1017.7mb
  • Venice, Fl
  • Venice, Fl

More Historic Weather Station data

Upgrade to MSW Pro to gain access to the past 30 days of data for over 8000 Wavebouys and Weather Stations around the globe.

Join Pro

Comparision Forecast

View Surf forecast
   
Fri 12/02 5:00pm 9 13 mph 1017.7mb 71f 76f
4:00pm 11 14 mph 1017.5mb 71f 77f
3:00pm 9 11 mph 1017.4mb 71f 77f
2:00pm 9 10 mph 1017.7mb 71f 77f
1:00pm 10 11 mph 1018.4mb 71f 74f
12:00pm 11 15 mph 1019.5mb 71f 72f
11:00am 11 14 mph 1020mb 71f 70f
10:00am 13 16 mph 1020.3mb 70f 67f
9:00am 13 20 mph 1020mb 70f 64f
8:00am 11 16 mph 1019.5mb 70f 62f
7:00am 10 15 mph 1018.6mb 71f 61f
6:00am 9 13 mph 1018.1mb 71f 62f
5:00am 9 13 mph 1017.4mb 71f 64f
4:00am 9
mph
1017mb 71f 65f
3:00am 9 11 mph 1016.5mb 71f 66f
2:00am 7 10 mph 1016.4mb 72f 67f
1:00am 8 9 mph 1016.2mb 72f 68f
12:00am 6 7 mph 1016.1mb 72f 70f
Thu 12/01 11:00pm 5 6 mph 1016.3mb 73f 71f
10:00pm 3 6 mph 1016.2mb 73f 71f
9:00pm 8 9 mph 1016mb 73f 72f
8:00pm 10
mph
1015.7mb 73f 72f
7:00pm 10
mph
1015.2mb 73f 71f
6:00pm 9 10 mph 1014.6mb 73f 71f
5:00pm 8
mph
1014.2mb 73f 73f
4:00pm 6
mph
1013.9mb 73f 74f
3:00pm 2 3 mph 1013.8mb 72f 74f
2:00pm 5 6 mph 1014.1mb 72f 74f
12:00pm 6
mph
1015.4mb 71f 74f
11:00am 8
mph
1015.9mb 71f 73f
10:00am 9 10 mph 1015.9mb 71f 74f
9:00am 6 8 mph 1015.6mb 71f 74f
8:00am 6 7 mph 1015.2mb 71f 72f
7:00am 7 8 mph 1014.8mb 71f 71f
6:00am 5 6 mph 1014.5mb 71f 71f
5:00am 3
mph
1014.2mb 71f 71f
4:00am 3 5 mph 1014mb 71f 71f
3:00am 5 6 mph 1013.9mb 71f 72f
2:00am 9 10 mph 1014.2mb 71f 72f
1:00am 8 9 mph 1014.3mb 71f 73f
12:00am 9
mph
1014.6mb 71f 72f
Wed 11/30 11:00pm 6 8 mph 1015.2mb 71f 72f
10:00pm 8
mph
1015mb 71f 73f
9:00pm 10 11 mph 1015mb 71f 73f
8:00pm 9 10 mph 1015.1mb 71f 72f
7:00pm 8
mph
1014.8mb 71f 73f
6:00pm 9 10 mph 1014.2mb 71f 73f
5:00pm 9 10 mph 1013.8mb 71f 73f
4:00pm 8
mph
1013.6mb 71f 74f
3:00pm 9 10 mph 1013.6mb 71f 73f
2:00pm 15 16 mph 1013.4mb 71f 74f
1:00pm 16 18 mph 1014mb 71f 73f
12:00pm 17 20 mph 1014.4mb 71f 74f
11:00am 20 22 mph 1014.9mb 71f 75f
10:00am 21 23 mph 1014.9mb 70f 76f
9:00am 13 15 mph 1014.6mb 70f 76f
8:00am 10 14 mph 1014.2mb 70f 73f
7:00am 15 18 mph 1013.6mb 70f 72f
6:00am 13 15 mph 1013.5mb 70f 70f
5:00am 8 11 mph 1013.6mb 70f 70f
4:00am 8 10 mph 1013.9mb 70f 70f
3:00am 7 10 mph 1014.2mb 70f 70f
2:00am 7 9 mph 1014.8mb 70f 70f
1:00am 8 10 mph 1015mb 70f 70f
12:00am 8 10 mph 1015.5mb 70f 71f
Tue 11/29 11:00pm 8 9 mph 1015.5mb 70f 72f
10:00pm 7 9 mph 1015.7mb 70f 71f
9:00pm 7 8 mph 1015.5mb 70f 72f
8:00pm 7
mph
1015.2mb 70f 73f
7:00pm 6 7 mph 1014.7mb 70f 74f
6:00pm 7 8 mph 1014.2mb 70f 74f
5:00pm 8
mph
1013.9mb 71f 74f
4:00pm 10
mph
1013.8mb 71f 74f
3:00pm 14 15 mph 1013.8mb 71f 74f
2:00pm 13 14 mph 1014.1mb 70f 74f
1:00pm 16 18 mph 1014.7mb 70f 75f
12:00pm 17 18 mph 1015.6mb 70f 74f
11:00am 17 18 mph 1016.2mb 70f 75f
10:00am 16 18 mph 1016.4mb 69f 74f
9:00am 10 14 mph 1015.9mb 69f 72f
8:00am 7 8 mph 1015.1mb 69f 69f
7:00am 6 8 mph 1014.4mb 69f 67f
6:00am 8 9 mph 1013.6mb 69f 67f
5:00am 8 10 mph 1013mb 69f 67f
4:00am 9 11 mph 1012.9mb 69f 68f
3:00am 9 13 mph 1013mb 69f 67f
2:00am 10 15 mph 1013.4mb 69f 67f
1:00am 7 8 mph 1014.3mb 69f 68f
12:00am 7 8 mph 1014.4mb 69f 68f